sensor_id;sensor_type;location;lat;lon;timestamp;pressure;altitude;pressure_sealevel;temperature;humidity
58471;BME280;44258;51.288;12.068;2023-07-29T00:00:56;99758.63;;;21.50;66.15
58471;BME280;44258;51.288;12.068;2023-07-29T00:03:43;99764.78;;;21.44;66.14
58471;BME280;44258;51.288;12.068;2023-07-29T00:06:30;99754.69;;;21.36;66.14
58471;BME280;44258;51.288;12.068;2023-07-29T00:09:18;99754.69;;;21.28;66.36
58471;BME280;44258;51.288;12.068;2023-07-29T00:12:05;99753.13;;;21.25;66.64
58471;BME280;44258;51.288;12.068;2023-07-29T00:14:52;99741.00;;;21.20;66.94
58471;BME280;44258;51.288;12.068;2023-07-29T00:17:39;99754.66;;;21.20;67.18
58471;BME280;44258;51.288;12.068;2023-07-29T00:20:26;99742.00;;;21.10;67.23
58471;BME280;44258;51.288;12.068;2023-07-29T00:23:13;99740.63;;;21.06;67.69
58471;BME280;44258;51.288;12.068;2023-07-29T00:26:02;99741.66;;;21.05;67.76
58471;BME280;44258;51.288;12.068;2023-07-29T00:28:49;99741.47;;;20.99;68.21
58471;BME280;44258;51.288;12.068;2023-07-29T00:31:36;99746.25;;;20.97;68.22
58471;BME280;44258;51.288;12.068;2023-07-29T00:34:23;99748.97;;;20.97;68.35
58471;BME280;44258;51.288;12.068;2023-07-29T00:37:10;99748.13;;;20.96;68.49
58471;BME280;44258;51.288;12.068;2023-07-29T00:39:57;99755.50;;;21.04;67.90
58471;BME280;44258;51.288;12.068;2023-07-29T00:42:46;99747.44;;;21.02;67.97
58471;BME280;44258;51.288;12.068;2023-07-29T00:45:33;99750.03;;;21.04;67.95
58471;BME280;44258;51.288;12.068;2023-07-29T00:48:20;99755.66;;;21.10;67.68
58471;BME280;44258;51.288;12.068;2023-07-29T00:51:07;99752.94;;;21.10;67.95
58471;BME280;44258;51.288;12.068;2023-07-29T00:53:54;99758.41;;;21.19;67.73
58471;BME280;44258;51.288;12.068;2023-07-29T00:56:41;99756.34;;;21.12;67.91
58471;BME280;44258;51.288;12.068;2023-07-29T00:59:30;99758.06;;;21.13;67.71
58471;BME280;44258;51.288;12.068;2023-07-29T01:02:17;99762.19;;;21.18;67.59
58471;BME280;44258;51.288;12.068;2023-07-29T01:05:06;99750.34;;;21.09;67.39
58471;BME280;44258;51.288;12.068;2023-07-29T01:07:57;99757.38;;;21.03;67.71
58471;BME280;44258;51.288;12.068;2023-07-29T01:10:54;99751.00;;;20.94;67.88
58471;BME280;44258;51.288;12.068;2023-07-29T01:13:50;99754.78;;;20.93;68.01
58471;BME280;44258;51.288;12.068;2023-07-29T01:16:42;99756.78;;;20.75;68.71
58471;BME280;44258;51.288;12.068;2023-07-29T01:19:48;99758.00;;;20.72;68.87
58471;BME280;44258;51.288;12.068;2023-07-29T01:22:40;99764.31;;;20.73;69.35
58471;BME280;44258;51.288;12.068;2023-07-29T01:25:28;99753.41;;;20.81;69.26
58471;BME280;44258;51.288;12.068;2023-07-29T01:28:15;99749.47;;;20.84;69.10
58471;BME280;44258;51.288;12.068;2023-07-29T01:31:07;99758.69;;;20.83;69.03
58471;BME280;44258;51.288;12.068;2023-07-29T01:34:06;99747.25;;;20.87;68.96
58471;BME280;44258;51.288;12.068;2023-07-29T01:36:57;99757.16;;;20.97;68.25
58471;BME280;44258;51.288;12.068;2023-07-29T01:39:49;99753.25;;;20.91;68.40
58471;BME280;44258;51.288;12.068;2023-07-29T01:42:38;99747.41;;;20.86;68.65
58471;BME280;44258;51.288;12.068;2023-07-29T01:45:25;99754.59;;;20.87;68.85
58471;BME280;44258;51.288;12.068;2023-07-29T01:48:12;99753.25;;;20.91;68.61
58471;BME280;44258;51.288;12.068;2023-07-29T01:50:59;99748.66;;;21.16;68.03
58471;BME280;44258;51.288;12.068;2023-07-29T01:53:47;99761.47;;;21.07;67.96
58471;BME280;44258;51.288;12.068;2023-07-29T01:56:34;99755.81;;;21.01;68.47
58471;BME280;44258;51.288;12.068;2023-07-29T01:59:24;99758.22;;;20.96;68.91
58471;BME280;44258;51.288;12.068;2023-07-29T02:02:12;99757.69;;;21.00;68.75
58471;BME280;44258;51.288;12.068;2023-07-29T02:04:58;99753.44;;;20.98;69.07
58471;BME280;44258;51.288;12.068;2023-07-29T02:07:46;99755.31;;;20.97;68.91
58471;BME280;44258;51.288;12.068;2023-07-29T02:10:32;99761.44;;;20.91;69.45
58471;BME280;44258;51.288;12.068;2023-07-29T02:13:19;99753.28;;;20.99;68.82
58471;BME280;44258;51.288;12.068;2023-07-29T02:16:08;99756.47;;;20.94;68.71
58471;BME280;44258;51.288;12.068;2023-07-29T02:18:54;99750.53;;;20.91;68.53
58471;BME280;44258;51.288;12.068;2023-07-29T02:21:41;99757.53;;;20.93;68.60
58471;BME280;44258;51.288;12.068;2023-07-29T02:24:28;99751.00;;;20.94;68.79
58471;BME280;44258;51.288;12.068;2023-07-29T02:27:15;99748.78;;;20.90;68.77
58471;BME280;44258;51.288;12.068;2023-07-29T02:30:02;99758.00;;;20.81;69.17
58471;BME280;44258;51.288;12.068;2023-07-29T02:32:54;99752.53;;;20.81;68.97
58471;BME280;44258;51.288;12.068;2023-07-29T02:35:41;99745.88;;;20.83;68.84
58471;BME280;44258;51.288;12.068;2023-07-29T02:38:28;99752.00;;;20.69;69.43
58471;BME280;44258;51.288;12.068;2023-07-29T02:41:14;99748.44;;;20.77;69.07
58471;BME280;44258;51.288;12.068;2023-07-29T02:44:02;99753.53;;;20.71;68.83
58471;BME280;44258;51.288;12.068;2023-07-29T02:46:49;99756.94;;;20.65;69.26
58471;BME280;44258;51.288;12.068;2023-07-29T02:49:39;99751.97;;;20.61;69.25
58471;BME280;44258;51.288;12.068;2023-07-29T02:52:26;99753.31;;;20.57;69.46
58471;BME280;44258;51.288;12.068;2023-07-29T02:55:13;99745.97;;;20.57;69.88
58471;BME280;44258;51.288;12.068;2023-07-29T02:58:00;99750.09;;;20.61;69.65
58471;BME280;44258;51.288;12.068;2023-07-29T03:00:46;99746.66;;;20.59;69.65
58471;BME280;44258;51.288;12.068;2023-07-29T03:03:34;99742.72;;;20.53;70.08
58471;BME280;44258;51.288;12.068;2023-07-29T03:06:23;99751.22;;;20.50;70.01
58471;BME280;44258;51.288;12.068;2023-07-29T03:09:10;99744.22;;;20.48;69.86
58471;BME280;44258;51.288;12.068;2023-07-29T03:11:57;99750.94;;;20.62;69.56
58471;BME280;44258;51.288;12.068;2023-07-29T03:14:47;99748.38;;;20.52;69.92
58471;BME280;44258;51.288;12.068;2023-07-29T03:17:34;99757.53;;;20.51;69.90
58471;BME280;44258;51.288;12.068;2023-07-29T03:20:21;99741.88;;;20.53;70.05
58471;BME280;44258;51.288;12.068;2023-07-29T03:23:09;99751.31;;;20.67;68.95
58471;BME280;44258;51.288;12.068;2023-07-29T03:25:56;99760.66;;;20.56;69.33
58471;BME280;44258;51.288;12.068;2023-07-29T03:28:44;99746.94;;;20.48;69.84
58471;BME280;44258;51.288;12.068;2023-07-29T03:31:31;99741.50;;;20.48;70.11
58471;BME280;44258;51.288;12.068;2023-07-29T03:34:17;99742.66;;;20.45;69.77
58471;BME280;44258;51.288;12.068;2023-07-29T03:37:04;99744.47;;;20.63;69.08
58471;BME280;44258;51.288;12.068;2023-07-29T03:39:52;99740.25;;;20.42;69.47
58471;BME280;44258;51.288;12.068;2023-07-29T03:42:39;99737.16;;;20.37;70.12
58471;BME280;44258;51.288;12.068;2023-07-29T03:45:26;99727.28;;;20.36;70.22
58471;BME280;44258;51.288;12.068;2023-07-29T03:48:13;99728.38;;;20.51;70.28
58471;BME280;44258;51.288;12.068;2023-07-29T03:50:59;99724.03;;;20.41;69.99
58471;BME280;44258;51.288;12.068;2023-07-29T03:53:46;99728.09;;;20.28;70.86
58471;BME280;44258;51.288;12.068;2023-07-29T03:56:35;99729.09;;;20.27;71.21
58471;BME280;44258;51.288;12.068;2023-07-29T03:59:22;99724.97;;;20.23;71.65
58471;BME280;44258;51.288;12.068;2023-07-29T04:02:09;99728.81;;;20.39;70.98
58471;BME280;44258;51.288;12.068;2023-07-29T04:04:56;99736.41;;;20.53;70.47
58471;BME280;44258;51.288;12.068;2023-07-29T04:07:42;99729.47;;;20.75;69.82
58471;BME280;44258;51.288;12.068;2023-07-29T04:10:29;99725.88;;;20.75;69.61
58471;BME280;44258;51.288;12.068;2023-07-29T04:13:18;99728.44;;;20.76;69.57
58471;BME280;44258;51.288;12.068;2023-07-29T04:16:06;99721.44;;;20.73;69.60
58471;BME280;44258;51.288;12.068;2023-07-29T04:18:53;99723.66;;;20.78;69.67
58471;BME280;44258;51.288;12.068;2023-07-29T04:21:40;99722.97;;;20.84;69.10
58471;BME280;44258;51.288;12.068;2023-07-29T04:24:28;99724.19;;;20.82;69.17
58471;BME280;44258;51.288;12.068;2023-07-29T04:27:15;99722.50;;;20.81;68.93
58471;BME280;44258;51.288;12.068;2023-07-29T04:30:04;99713.06;;;20.75;69.39
58471;BME280;44258;51.288;12.068;2023-07-29T04:32:51;99713.59;;;20.70;69.06
58471;BME280;44258;51.288;12.068;2023-07-29T04:35:38;99714.59;;;20.69;69.25
58471;BME280;44258;51.288;12.068;2023-07-29T04:38:31;99716.63;;;20.67;69.44
58471;BME280;44258;51.288;12.068;2023-07-29T04:41:18;99715.13;;;20.73;69.13
58471;BME280;44258;51.288;12.068;2023-07-29T04:44:05;99714.44;;;20.71;69.58
58471;BME280;44258;51.288;12.068;2023-07-29T04:46:53;99708.25;;;20.61;69.51
58471;BME280;44258;51.288;12.068;2023-07-29T04:49:40;99706.38;;;20.61;69.86
58471;BME280;44258;51.288;12.068;2023-07-29T04:52:27;99713.59;;;20.79;68.86
58471;BME280;44258;51.288;12.068;2023-07-29T04:55:14;99711.53;;;20.72;69.33
58471;BME280;44258;51.288;12.068;2023-07-29T04:58:01;99707.94;;;20.72;69.33
58471;BME280;44258;51.288;12.068;2023-07-29T05:00:48;99705.72;;;20.76;69.60
58471;BME280;44258;51.288;12.068;2023-07-29T05:03:36;99707.78;;;20.73;69.61
58471;BME280;44258;51.288;12.068;2023-07-29T05:06:25;99707.47;;;20.85;69.64
58471;BME280;44258;51.288;12.068;2023-07-29T05:09:13;99714.78;;;20.84;69.54
58471;BME280;44258;51.288;12.068;2023-07-29T05:12:01;99708.31;;;20.85;69.44
58471;BME280;44258;51.288;12.068;2023-07-29T05:14:48;99711.22;;;20.92;69.16
58471;BME280;44258;51.288;12.068;2023-07-29T05:17:34;99718.06;;;20.96;69.44
58471;BME280;44258;51.288;12.068;2023-07-29T05:20:23;99714.81;;;21.01;69.13
58471;BME280;44258;51.288;12.068;2023-07-29T05:23:10;99721.16;;;21.01;69.08
58471;BME280;44258;51.288;12.068;2023-07-29T05:25:57;99725.56;;;21.02;69.19
58471;BME280;44258;51.288;12.068;2023-07-29T05:28:43;99718.22;;;20.94;69.52
58471;BME280;44258;51.288;12.068;2023-07-29T05:31:30;99711.06;;;20.93;69.70
58471;BME280;44258;51.288;12.068;2023-07-29T05:34:17;99715.69;;;21.01;69.68
58471;BME280;44258;51.288;12.068;2023-07-29T05:37:06;99720.31;;;21.17;69.25
58471;BME280;44258;51.288;12.068;2023-07-29T05:39:53;99719.16;;;21.28;68.91
58471;BME280;44258;51.288;12.068;2023-07-29T05:42:39;99712.31;;;21.40;68.58
58471;BME280;44258;51.288;12.068;2023-07-29T05:45:26;99706.47;;;21.43;68.43
58471;BME280;44258;51.288;12.068;2023-07-29T05:48:13;99714.19;;;21.56;68.30
58471;BME280;44258;51.288;12.068;2023-07-29T05:51:00;99705.97;;;21.64;67.91
58471;BME280;44258;51.288;12.068;2023-07-29T05:53:48;99705.38;;;21.93;67.36
58471;BME280;44258;51.288;12.068;2023-07-29T05:56:35;99710.31;;;22.06;66.57
58471;BME280;44258;51.288;12.068;2023-07-29T05:59:22;99712.81;;;22.24;65.51
58471;BME280;44258;51.288;12.068;2023-07-29T06:02:09;99704.53;;;22.01;65.49
58471;BME280;44258;51.288;12.068;2023-07-29T06:04:56;99705.16;;;22.20;65.11
58471;BME280;44258;51.288;12.068;2023-07-29T06:07:43;99705.59;;;22.40;64.36
58471;BME280;44258;51.288;12.068;2023-07-29T06:10:32;99709.09;;;22.57;64.14
58471;BME280;44258;51.288;12.068;2023-07-29T06:13:18;99697.63;;;22.53;63.13
58471;BME280;44258;51.288;12.068;2023-07-29T06:16:05;99702.97;;;22.46;63.28
58471;BME280;44258;51.288;12.068;2023-07-29T06:18:52;99701.41;;;22.52;63.43
58471;BME280;44258;51.288;12.068;2023-07-29T06:21:39;99697.63;;;22.53;63.31
58471;BME280;44258;51.288;12.068;2023-07-29T06:24:26;99700.69;;;22.58;62.88
58471;BME280;44258;51.288;12.068;2023-07-29T06:27:14;99703.22;;;22.68;63.39
58471;BME280;44258;51.288;12.068;2023-07-29T06:30:01;99698.38;;;23.01;62.14
58471;BME280;44258;51.288;12.068;2023-07-29T06:32:48;99697.50;;;23.24;61.80
58471;BME280;44258;51.288;12.068;2023-07-29T06:35:35;99694.81;;;23.39;60.65
58471;BME280;44258;51.288;12.068;2023-07-29T06:38:22;99692.50;;;23.50;60.41
58471;BME280;44258;51.288;12.068;2023-07-29T06:41:09;99692.69;;;23.49;59.53
58471;BME280;44258;51.288;12.068;2023-07-29T06:43:57;99690.94;;;23.71;59.92
58471;BME280;44258;51.288;12.068;2023-07-29T06:46:44;99694.72;;;24.00;59.08
58471;BME280;44258;51.288;12.068;2023-07-29T06:49:31;99692.84;;;23.85;58.21
58471;BME280;44258;51.288;12.068;2023-07-29T06:52:18;99693.50;;;23.72;59.36
58471;BME280;44258;51.288;12.068;2023-07-29T06:55:05;99699.72;;;23.66;59.50
58471;BME280;44258;51.288;12.068;2023-07-29T06:57:52;99700.66;;;23.59;59.02
58471;BME280;44258;51.288;12.068;2023-07-29T07:00:41;99699.91;;;23.50;59.67
58471;BME280;44258;51.288;12.068;2023-07-29T07:03:28;99691.94;;;23.55;59.17
58471;BME280;44258;51.288;12.068;2023-07-29T07:06:14;99698.75;;;23.44;59.77
58471;BME280;44258;51.288;12.068;2023-07-29T07:09:01;99696.31;;;23.49;60.05
58471;BME280;44258;51.288;12.068;2023-07-29T07:11:48;99691.09;;;23.55;60.17
58471;BME280;44258;51.288;12.068;2023-07-29T07:14:35;99688.56;;;23.68;60.08
58471;BME280;44258;51.288;12.068;2023-07-29T07:17:23;99684.13;;;23.97;59.86
58471;BME280;44258;51.288;12.068;2023-07-29T07:20:11;99675.06;;;23.96;58.81
58471;BME280;44258;51.288;12.068;2023-07-29T07:22:58;99679.41;;;23.90;59.43
58471;BME280;44258;51.288;12.068;2023-07-29T07:25:45;99681.66;;;23.87;58.82
58471;BME280;44258;51.288;12.068;2023-07-29T07:28:32;99678.34;;;23.77;59.14
58471;BME280;44258;51.288;12.068;2023-07-29T07:31:19;99672.19;;;23.60;59.03
58471;BME280;44258;51.288;12.068;2023-07-29T07:34:08;99667.72;;;23.59;59.00
58471;BME280;44258;51.288;12.068;2023-07-29T07:36:55;99672.63;;;23.48;59.43
58471;BME280;44258;51.288;12.068;2023-07-29T07:39:42;99669.13;;;23.55;59.38
58471;BME280;44258;51.288;12.068;2023-07-29T07:42:29;99664.13;;;23.73;59.41
58471;BME280;44258;51.288;12.068;2023-07-29T07:45:16;99669.66;;;24.03;58.50
58471;BME280;44258;51.288;12.068;2023-07-29T07:48:03;99654.66;;;24.05;58.03
58471;BME280;44258;51.288;12.068;2023-07-29T07:50:52;99659.50;;;24.18;58.07
58471;BME280;44258;51.288;12.068;2023-07-29T07:53:39;99653.66;;;24.21;57.77
58471;BME280;44258;51.288;12.068;2023-07-29T07:56:26;99656.47;;;24.43;57.36
58471;BME280;44258;51.288;12.068;2023-07-29T07:59:13;99651.88;;;24.50;56.50
58471;BME280;44258;51.288;12.068;2023-07-29T08:01:59;99659.22;;;24.43;57.03
58471;BME280;44258;51.288;12.068;2023-07-29T08:04:46;99656.28;;;24.29;57.58
58471;BME280;44258;51.288;12.068;2023-07-29T08:07:35;99646.63;;;24.34;57.27
58471;BME280;44258;51.288;12.068;2023-07-29T08:10:22;99639.56;;;24.46;57.21
58471;BME280;44258;51.288;12.068;2023-07-29T08:13:08;99639.63;;;24.52;57.09
58471;BME280;44258;51.288;12.068;2023-07-29T08:15:55;99638.66;;;24.60;56.47
58471;BME280;44258;51.288;12.068;2023-07-29T08:18:42;99631.78;;;24.49;57.53
58471;BME280;44258;51.288;12.068;2023-07-29T08:21:29;99633.78;;;24.41;57.30
58471;BME280;44258;51.288;12.068;2023-07-29T08:24:17;99632.16;;;24.46;57.10
58471;BME280;44258;51.288;12.068;2023-07-29T08:27:05;99627.19;;;24.71;56.21
58471;BME280;44258;51.288;12.068;2023-07-29T08:29:53;99629.81;;;25.01;55.92
58471;BME280;44258;51.288;12.068;2023-07-29T08:32:41;99617.25;;;24.92;54.88
58471;BME280;44258;51.288;12.068;2023-07-29T08:35:30;99625.78;;;25.04;54.92
58471;BME280;44258;51.288;12.068;2023-07-29T08:38:17;99616.50;;;25.05;54.61
58471;BME280;44258;51.288;12.068;2023-07-29T08:41:12;99621.94;;;25.48;55.05
58471;BME280;44258;51.288;12.068;2023-07-29T08:44:07;99611.56;;;25.78;53.41
58471;BME280;44258;51.288;12.068;2023-07-29T08:46:56;99612.47;;;25.85;53.10
58471;BME280;44258;51.288;12.068;2023-07-29T08:49:43;99612.63;;;25.77;53.42
58471;BME280;44258;51.288;12.068;2023-07-29T08:52:31;99627.13;;;25.99;53.67
58471;BME280;44258;51.288;12.068;2023-07-29T08:55:21;99623.72;;;25.97;52.97
58471;BME280;44258;51.288;12.068;2023-07-29T08:58:10;99620.94;;;25.90;52.40
58471;BME280;44258;51.288;12.068;2023-07-29T09:00:57;99606.88;;;25.79;53.44
58471;BME280;44258;51.288;12.068;2023-07-29T09:03:45;99607.81;;;25.92;52.90
58471;BME280;44258;51.288;12.068;2023-07-29T09:06:32;99611.91;;;26.03;53.18
58471;BME280;44258;51.288;12.068;2023-07-29T09:09:19;99615.59;;;26.17;52.91
58471;BME280;44258;51.288;12.068;2023-07-29T09:12:08;99614.75;;;26.17;52.36
58471;BME280;44258;51.288;12.068;2023-07-29T09:14:58;99620.34;;;26.37;52.05
58471;BME280;44258;51.288;12.068;2023-07-29T09:17:45;99623.47;;;26.20;51.84
58471;BME280;44258;51.288;12.068;2023-07-29T09:20:33;99618.19;;;25.90;52.01
58471;BME280;44258;51.288;12.068;2023-07-29T09:23:20;99607.69;;;25.66;53.49
58471;BME280;44258;51.288;12.068;2023-07-29T09:26:08;99607.06;;;25.70;53.40
58471;BME280;44258;51.288;12.068;2023-07-29T09:28:56;99607.34;;;25.82;53.53
58471;BME280;44258;51.288;12.068;2023-07-29T09:31:45;99603.97;;;25.87;53.96
58471;BME280;44258;51.288;12.068;2023-07-29T09:34:32;99608.81;;;25.85;53.02
58471;BME280;44258;51.288;12.068;2023-07-29T09:37:21;99604.75;;;25.74;53.44
58471;BME280;44258;51.288;12.068;2023-07-29T09:40:13;99604.84;;;25.87;53.04
58471;BME280;44258;51.288;12.068;2023-07-29T09:43:01;99602.09;;;25.87;52.81
58471;BME280;44258;51.288;12.068;2023-07-29T09:45:48;99597.78;;;25.78;52.43
58471;BME280;44258;51.288;12.068;2023-07-29T09:48:37;99594.47;;;25.89;52.32
58471;BME280;44258;51.288;12.068;2023-07-29T09:51:24;99590.44;;;25.92;51.89
58471;BME280;44258;51.288;12.068;2023-07-29T09:54:12;99603.94;;;25.80;53.11
58471;BME280;44258;51.288;12.068;2023-07-29T09:57:00;99600.97;;;25.75;53.19
58471;BME280;44258;51.288;12.068;2023-07-29T09:59:55;99606.13;;;25.57;53.17
58471;BME280;44258;51.288;12.068;2023-07-29T10:02:43;99608.38;;;25.46;52.93
58471;BME280;44258;51.288;12.068;2023-07-29T10:05:32;99607.22;;;25.62;53.22
58471;BME280;44258;51.288;12.068;2023-07-29T10:08:22;99613.56;;;25.63;52.94
58471;BME280;44258;51.288;12.068;2023-07-29T10:11:13;99606.56;;;25.60;53.28
58471;BME280;44258;51.288;12.068;2023-07-29T10:14:03;99602.34;;;25.58;53.67
58471;BME280;44258;51.288;12.068;2023-07-29T10:16:50;99600.69;;;25.63;53.79
58471;BME280;44258;51.288;12.068;2023-07-29T10:19:39;99607.69;;;25.66;53.59
58471;BME280;44258;51.288;12.068;2023-07-29T10:22:29;99612.59;;;25.42;53.97
58471;BME280;44258;51.288;12.068;2023-07-29T10:25:22;99602.03;;;25.46;54.85
58471;BME280;44258;51.288;12.068;2023-07-29T10:28:11;99604.13;;;25.44;54.56
58471;BME280;44258;51.288;12.068;2023-07-29T10:30:59;99604.75;;;25.39;54.98
58471;BME280;44258;51.288;12.068;2023-07-29T10:33:46;99610.47;;;25.16;53.63
58471;BME280;44258;51.288;12.068;2023-07-29T10:36:33;99603.81;;;25.32;53.03
58471;BME280;44258;51.288;12.068;2023-07-29T10:39:24;99592.38;;;25.28;53.66
58471;BME280;44258;51.288;12.068;2023-07-29T10:42:11;99592.94;;;25.45;52.59
58471;BME280;44258;51.288;12.068;2023-07-29T10:44:58;99595.84;;;25.72;52.81
58471;BME280;44258;51.288;12.068;2023-07-29T10:47:45;99596.56;;;25.87;52.26
58471;BME280;44258;51.288;12.068;2023-07-29T10:50:32;99613.00;;;26.09;51.91
58471;BME280;44258;51.288;12.068;2023-07-29T10:53:19;99603.41;;;25.98;51.07
58471;BME280;44258;51.288;12.068;2023-07-29T10:56:08;99600.31;;;26.15;50.54
58471;BME280;44258;51.288;12.068;2023-07-29T10:58:56;99594.63;;;26.23;50.09
58471;BME280;44258;51.288;12.068;2023-07-29T11:01:51;99588.47;;;26.27;50.47
58471;BME280;44258;51.288;12.068;2023-07-29T11:04:46;99588.84;;;26.11;50.53
58471;BME280;44258;51.288;12.068;2023-07-29T11:07:43;99580.38;;;26.06;50.67
58471;BME280;44258;51.288;12.068;2023-07-29T11:10:42;99580.06;;;25.94;50.40
58471;BME280;44258;51.288;12.068;2023-07-29T11:13:32;99578.34;;;25.93;50.40
58471;BME280;44258;51.288;12.068;2023-07-29T11:16:20;99574.09;;;25.84;50.82
58471;BME280;44258;51.288;12.068;2023-07-29T11:19:10;99574.75;;;25.86;50.91
58471;BME280;44258;51.288;12.068;2023-07-29T11:22:01;99570.72;;;25.88;50.56
58471;BME280;44258;51.288;12.068;2023-07-29T11:24:48;99575.91;;;26.05;51.16
58471;BME280;44258;51.288;12.068;2023-07-29T11:27:36;99575.53;;;26.28;51.17
58471;BME280;44258;51.288;12.068;2023-07-29T11:30:25;99564.13;;;26.24;51.09
58471;BME280;44258;51.288;12.068;2023-07-29T11:33:13;99569.19;;;26.34;50.39
58471;BME280;44258;51.288;12.068;2023-07-29T11:35:59;99557.38;;;25.85;50.50
58471;BME280;44258;51.288;12.068;2023-07-29T11:38:46;99566.19;;;25.74;50.87
58471;BME280;44258;51.288;12.068;2023-07-29T11:41:33;99559.16;;;26.00;50.76
58471;BME280;44258;51.288;12.068;2023-07-29T11:44:20;99562.59;;;26.22;50.44
58471;BME280;44258;51.288;12.068;2023-07-29T11:47:09;99572.19;;;26.33;50.01
58471;BME280;44258;51.288;12.068;2023-07-29T11:49:59;99563.72;;;26.41;50.12
58471;BME280;44258;51.288;12.068;2023-07-29T11:52:46;99560.94;;;26.27;49.66
58471;BME280;44258;51.288;12.068;2023-07-29T11:55:33;99562.22;;;26.31;50.10
58471;BME280;44258;51.288;12.068;2023-07-29T11:58:20;99557.38;;;26.47;48.91
58471;BME280;44258;51.288;12.068;2023-07-29T12:01:07;99564.50;;;26.15;48.28
58471;BME280;44258;51.288;12.068;2023-07-29T12:03:58;99568.25;;;26.00;49.87
58471;BME280;44258;51.288;12.068;2023-07-29T12:06:46;99559.06;;;25.93;50.33
58471;BME280;44258;51.288;12.068;2023-07-29T12:09:35;99556.22;;;26.08;50.00
58471;BME280;44258;51.288;12.068;2023-07-29T12:12:23;99558.16;;;26.27;49.81
58471;BME280;44258;51.288;12.068;2023-07-29T12:15:10;99549.56;;;26.64;49.01
58471;BME280;44258;51.288;12.068;2023-07-29T12:17:57;99558.22;;;26.54;47.85
58471;BME280;44258;51.288;12.068;2023-07-29T12:20:46;99564.66;;;26.88;48.10
58471;BME280;44258;51.288;12.068;2023-07-29T12:23:33;99562.53;;;27.03;47.75
58471;BME280;44258;51.288;12.068;2023-07-29T12:26:20;99556.38;;;27.15;46.82
58471;BME280;44258;51.288;12.068;2023-07-29T12:29:17;99546.41;;;27.14;46.82
58471;BME280;44258;51.288;12.068;2023-07-29T12:32:05;99549.75;;;27.56;46.02
58471;BME280;44258;51.288;12.068;2023-07-29T12:34:53;99550.13;;;27.73;45.89
58471;BME280;44258;51.288;12.068;2023-07-29T12:37:41;99555.41;;;27.87;45.34
58471;BME280;44258;51.288;12.068;2023-07-29T12:40:28;99560.38;;;27.45;45.65
58471;BME280;44258;51.288;12.068;2023-07-29T12:43:15;99557.22;;;27.35;45.32
58471;BME280;44258;51.288;12.068;2023-07-29T12:46:02;99549.56;;;27.37;45.80
58471;BME280;44258;51.288;12.068;2023-07-29T12:48:49;99539.41;;;26.91;46.31
58471;BME280;44258;51.288;12.068;2023-07-29T12:51:37;99533.03;;;26.97;46.43
58471;BME280;44258;51.288;12.068;2023-07-29T12:54:26;99537.72;;;26.90;46.41
58471;BME280;44258;51.288;12.068;2023-07-29T12:57:12;99529.22;;;26.98;46.56
58471;BME280;44258;51.288;12.068;2023-07-29T12:59:59;99531.13;;;27.04;46.54
58471;BME280;44258;51.288;12.068;2023-07-29T13:02:46;99522.44;;;27.07;46.70
58471;BME280;44258;51.288;12.068;2023-07-29T13:05:33;99512.84;;;27.17;46.04
58471;BME280;44258;51.288;12.068;2023-07-29T13:08:20;99516.91;;;27.01;46.02
58471;BME280;44258;51.288;12.068;2023-07-29T13:11:10;99509.50;;;26.88;45.42
58471;BME280;44258;51.288;12.068;2023-07-29T13:13:57;99509.72;;;26.80;45.67
58471;BME280;44258;51.288;12.068;2023-07-29T13:16:44;99512.91;;;26.83;46.61
58471;BME280;44258;51.288;12.068;2023-07-29T13:19:31;99513.09;;;26.82;46.51
58471;BME280;44258;51.288;12.068;2023-07-29T13:22:19;99517.75;;;26.75;46.11
58471;BME280;44258;51.288;12.068;2023-07-29T13:25:07;99500.75;;;26.91;46.76
58471;BME280;44258;51.288;12.068;2023-07-29T13:27:55;99505.25;;;27.05;47.33
58471;BME280;44258;51.288;12.068;2023-07-29T13:30:42;99502.91;;;27.22;46.66
58471;BME280;44258;51.288;12.068;2023-07-29T13:33:29;99503.94;;;27.28;46.74
58471;BME280;44258;51.288;12.068;2023-07-29T13:36:19;99496.84;;;27.52;46.13
58471;BME280;44258;51.288;12.068;2023-07-29T13:39:06;99497.66;;;27.66;43.48
58471;BME280;44258;51.288;12.068;2023-07-29T13:41:54;99492.97;;;27.73;43.93
58471;BME280;44258;51.288;12.068;2023-07-29T13:44:43;99494.00;;;27.72;43.69
58471;BME280;44258;51.288;12.068;2023-07-29T13:47:29;99493.06;;;27.46;44.37
58471;BME280;44258;51.288;12.068;2023-07-29T13:50:17;99486.97;;;27.24;45.62
58471;BME280;44258;51.288;12.068;2023-07-29T13:53:04;99482.72;;;27.28;45.51
58471;BME280;44258;51.288;12.068;2023-07-29T13:55:51;99474.84;;;27.19;46.00
58471;BME280;44258;51.288;12.068;2023-07-29T13:58:38;99473.53;;;27.41;44.91
58471;BME280;44258;51.288;12.068;2023-07-29T14:01:26;99469.94;;;27.41;45.41
58471;BME280;44258;51.288;12.068;2023-07-29T14:04:13;99477.31;;;27.54;45.07
58471;BME280;44258;51.288;12.068;2023-07-29T14:07:00;99483.13;;;27.25;45.33
58471;BME280;44258;51.288;12.068;2023-07-29T14:09:47;99478.47;;;27.06;44.35
58471;BME280;44258;51.288;12.068;2023-07-29T14:12:34;99473.00;;;26.86;44.39
58471;BME280;44258;51.288;12.068;2023-07-29T14:15:21;99479.16;;;26.68;44.80
58471;BME280;44258;51.288;12.068;2023-07-29T14:18:10;99477.00;;;26.50;45.32
58471;BME280;44258;51.288;12.068;2023-07-29T14:20:57;99489.22;;;26.01;48.54
58471;BME280;44258;51.288;12.068;2023-07-29T14:23:44;99512.72;;;26.03;49.60
58471;BME280;44258;51.288;12.068;2023-07-29T14:26:31;99530.22;;;25.82;51.28
58471;BME280;44258;51.288;12.068;2023-07-29T14:29:18;99534.69;;;25.42;52.78
58471;BME280;44258;51.288;12.068;2023-07-29T14:32:06;99551.44;;;25.19;54.25
58471;BME280;44258;51.288;12.068;2023-07-29T14:34:54;99574.03;;;24.43;55.97
58471;BME280;44258;51.288;12.068;2023-07-29T14:37:41;99575.28;;;23.74;55.72